sensor_id;sensor_type;location;lat;lon;timestamp;P1;durP1;ratioP1;P2;durP2;ratioP2
49366;SDS011;35245;52.026;8.540;2023-01-04T00:02:24;7.10;;;2.00;;
49366;SDS011;35245;52.026;8.540;2023-01-04T00:04:51;5.65;;;1.58;;
49366;SDS011;35245;52.026;8.540;2023-01-04T00:07:19;8.43;;;1.52;;
49366;SDS011;35245;52.026;8.540;2023-01-04T00:09:46;5.80;;;1.55;;
49366;SDS011;35245;52.026;8.540;2023-01-04T00:12:13;7.68;;;1.90;;
49366;SDS011;35245;52.026;8.540;2023-01-04T00:14:42;5.57;;;1.33;;
49366;SDS011;35245;52.026;8.540;2023-01-04T00:17:09;6.82;;;1.77;;
49366;SDS011;35245;52.026;8.540;2023-01-04T00:19:36;7.97;;;1.90;;
49366;SDS011;35245;52.026;8.540;2023-01-04T00:22:04;5.68;;;1.10;;
49366;SDS011;35245;52.026;8.540;2023-01-04T00:24:31;7.20;;;1.35;;
49366;SDS011;35245;52.026;8.540;2023-01-04T00:26:59;2.95;;;1.40;;
49366;SDS011;35245;52.026;8.540;2023-01-04T00:29:26;7.25;;;1.55;;
49366;SDS011;35245;52.026;8.540;2023-01-04T00:31:54;6.22;;;1.38;;
49366;SDS011;35245;52.026;8.540;2023-01-04T00:34:22;5.72;;;1.40;;
49366;SDS011;35245;52.026;8.540;2023-01-04T00:36:49;7.88;;;1.40;;
49366;SDS011;35245;52.026;8.540;2023-01-04T00:39:16;4.38;;;1.20;;
49366;SDS011;35245;52.026;8.540;2023-01-04T00:41:43;6.78;;;1.70;;
49366;SDS011;35245;52.026;8.540;2023-01-04T00:44:13;6.88;;;1.65;;
49366;SDS011;35245;52.026;8.540;2023-01-04T00:46:41;7.53;;;1.50;;
49366;SDS011;35245;52.026;8.540;2023-01-04T00:49:10;4.75;;;1.45;;
49366;SDS011;35245;52.026;8.540;2023-01-04T00:51:39;5.97;;;1.65;;
49366;SDS011;35245;52.026;8.540;2023-01-04T00:54:07;6.38;;;1.65;;
49366;SDS011;35245;52.026;8.540;2023-01-04T00:56:39;8.15;;;2.10;;
49366;SDS011;35245;52.026;8.540;2023-01-04T00:59:06;7.03;;;1.23;;
49366;SDS011;35245;52.026;8.540;2023-01-04T01:01:35;6.28;;;1.92;;
49366;SDS011;35245;52.026;8.540;2023-01-04T01:04:02;7.93;;;1.35;;
49366;SDS011;35245;52.026;8.540;2023-01-04T01:06:32;5.85;;;1.35;;
49366;SDS011;35245;52.026;8.540;2023-01-04T01:08:59;5.93;;;1.25;;
49366;SDS011;35245;52.026;8.540;2023-01-04T01:11:27;3.05;;;1.35;;
49366;SDS011;35245;52.026;8.540;2023-01-04T01:13:55;3.95;;;1.83;;
49366;SDS011;35245;52.026;8.540;2023-01-04T01:16:24;6.43;;;1.55;;
49366;SDS011;35245;52.026;8.540;2023-01-04T01:18:52;6.63;;;1.48;;
49366;SDS011;35245;52.026;8.540;2023-01-04T01:21:20;6.07;;;1.52;;
49366;SDS011;35245;52.026;8.540;2023-01-04T01:23:50;3.65;;;1.40;;
49366;SDS011;35245;52.026;8.540;2023-01-04T01:26:21;8.57;;;1.67;;
49366;SDS011;35245;52.026;8.540;2023-01-04T01:28:51;7.75;;;2.03;;
49366;SDS011;35245;52.026;8.540;2023-01-04T01:31:19;5.93;;;1.17;;
49366;SDS011;35245;52.026;8.540;2023-01-04T01:33:48;8.00;;;1.65;;
49366;SDS011;35245;52.026;8.540;2023-01-04T01:36:18;6.65;;;1.70;;
49366;SDS011;35245;52.026;8.540;2023-01-04T01:38:47;7.95;;;1.58;;
49366;SDS011;35245;52.026;8.540;2023-01-04T01:41:17;5.55;;;1.50;;
49366;SDS011;35245;52.026;8.540;2023-01-04T01:43:51;6.95;;;1.50;;
49366;SDS011;35245;52.026;8.540;2023-01-04T01:46:22;4.45;;;1.20;;
49366;SDS011;35245;52.026;8.540;2023-01-04T01:48:55;5.82;;;1.73;;
49366;SDS011;35245;52.026;8.540;2023-01-04T01:51:26;4.70;;;1.45;;
49366;SDS011;35245;52.026;8.540;2023-01-04T01:53:56;3.60;;;1.23;;
49366;SDS011;35245;52.026;8.540;2023-01-04T01:56:33;6.50;;;1.15;;
49366;SDS011;35245;52.026;8.540;2023-01-04T01:59:04;5.45;;;1.80;;
49366;SDS011;35245;52.026;8.540;2023-01-04T02:01:34;4.93;;;1.40;;
49366;SDS011;35245;52.026;8.540;2023-01-04T02:04:02;4.57;;;1.45;;
49366;SDS011;35245;52.026;8.540;2023-01-04T02:06:32;3.38;;;1.33;;
49366;SDS011;35245;52.026;8.540;2023-01-04T02:09:06;3.53;;;1.10;;
49366;SDS011;35245;52.026;8.540;2023-01-04T02:11:36;3.92;;;1.30;;
49366;SDS011;35245;52.026;8.540;2023-01-04T02:14:03;8.48;;;1.60;;
49366;SDS011;35245;52.026;8.540;2023-01-04T02:16:56;6.93;;;1.30;;
49366;SDS011;35245;52.026;8.540;2023-01-04T02:32:58;4.32;;;1.30;;
49366;SDS011;35245;52.026;8.540;2023-01-04T02:35:40;6.60;;;1.30;;
49366;SDS011;35245;52.026;8.540;2023-01-04T02:38:21;4.60;;;1.25;;
49366;SDS011;35245;52.026;8.540;2023-01-04T02:40:57;3.78;;;1.27;;
49366;SDS011;35245;52.026;8.540;2023-01-04T02:43:36;8.38;;;1.95;;
49366;SDS011;35245;52.026;8.540;2023-01-04T02:46:43;4.97;;;1.48;;
49366;SDS011;35245;52.026;8.540;2023-01-04T02:49:15;7.75;;;1.90;;
49366;SDS011;35245;52.026;8.540;2023-01-04T02:52:00;7.95;;;1.73;;
49366;SDS011;35245;52.026;8.540;2023-01-04T02:54:27;9.20;;;1.73;;
49366;SDS011;35245;52.026;8.540;2023-01-04T02:57:06;9.82;;;2.00;;
49366;SDS011;35245;52.026;8.540;2023-01-04T02:59:56;4.68;;;1.48;;
49366;SDS011;35245;52.026;8.540;2023-01-04T03:02:53;2.70;;;1.45;;
49366;SDS011;35245;52.026;8.540;2023-01-04T03:06:04;4.95;;;1.50;;
49366;SDS011;35245;52.026;8.540;2023-01-04T03:08:42;7.22;;;1.70;;
49366;SDS011;35245;52.026;8.540;2023-01-04T03:11:21;8.30;;;2.10;;
49366;SDS011;35245;52.026;8.540;2023-01-04T03:14:15;5.50;;;2.05;;
49366;SDS011;35245;52.026;8.540;2023-01-04T03:16:46;8.27;;;2.15;;
49366;SDS011;35245;52.026;8.540;2023-01-04T03:19:15;4.63;;;2.00;;
49366;SDS011;35245;52.026;8.540;2023-01-04T03:22:13;5.95;;;2.13;;
49366;SDS011;35245;52.026;8.540;2023-01-04T03:25:01;5.43;;;1.65;;
49366;SDS011;35245;52.026;8.540;2023-01-04T03:27:46;7.10;;;2.20;;
49366;SDS011;35245;52.026;8.540;2023-01-04T03:30:37;7.53;;;1.90;;
49366;SDS011;35245;52.026;8.540;2023-01-04T03:33:36;7.00;;;1.90;;
49366;SDS011;35245;52.026;8.540;2023-01-04T03:36:29;8.00;;;1.65;;
49366;SDS011;35245;52.026;8.540;2023-01-04T03:39:11;11.93;;;2.20;;
49366;SDS011;35245;52.026;8.540;2023-01-04T03:42:06;4.82;;;1.65;;
49366;SDS011;35245;52.026;8.540;2023-01-04T03:44:59;8.60;;;2.13;;
49366;SDS011;35245;52.026;8.540;2023-01-04T03:47:57;5.68;;;1.90;;
49366;SDS011;35245;52.026;8.540;2023-01-04T03:50:49;5.80;;;1.73;;
49366;SDS011;35245;52.026;8.540;2023-01-04T03:53:20;4.32;;;1.50;;
49366;SDS011;35245;52.026;8.540;2023-01-04T03:55:51;10.52;;;1.92;;
49366;SDS011;35245;52.026;8.540;2023-01-04T03:58:19;8.32;;;2.20;;
49366;SDS011;35245;52.026;8.540;2023-01-04T04:00:48;7.00;;;2.05;;
49366;SDS011;35245;52.026;8.540;2023-01-04T04:03:15;8.95;;;1.83;;
49366;SDS011;35245;52.026;8.540;2023-01-04T04:05:42;8.10;;;2.65;;
49366;SDS011;35245;52.026;8.540;2023-01-04T04:08:28;7.63;;;1.73;;
49366;SDS011;35245;52.026;8.540;2023-01-04T04:10:57;7.70;;;1.80;;
49366;SDS011;35245;52.026;8.540;2023-01-04T04:13:47;7.30;;;1.83;;
49366;SDS011;35245;52.026;8.540;2023-01-04T04:16:15;5.30;;;1.83;;
49366;SDS011;35245;52.026;8.540;2023-01-04T04:18:44;4.13;;;1.90;;
49366;SDS011;35245;52.026;8.540;2023-01-04T04:21:12;10.27;;;2.17;;
49366;SDS011;35245;52.026;8.540;2023-01-04T04:23:39;6.28;;;2.55;;
49366;SDS011;35245;52.026;8.540;2023-01-04T04:26:08;7.20;;;1.60;;
49366;SDS011;35245;52.026;8.540;2023-01-04T04:28:35;8.05;;;2.03;;
49366;SDS011;35245;52.026;8.540;2023-01-04T04:31:03;6.85;;;1.40;;
49366;SDS011;35245;52.026;8.540;2023-01-04T04:33:31;5.57;;;1.67;;
49366;SDS011;35245;52.026;8.540;2023-01-04T04:35:58;2.67;;;1.33;;
49366;SDS011;35245;52.026;8.540;2023-01-04T04:38:25;2.70;;;1.25;;
49366;SDS011;35245;52.026;8.540;2023-01-04T04:40:52;3.55;;;1.50;;
49366;SDS011;35245;52.026;8.540;2023-01-04T04:43:38;6.60;;;1.50;;
49366;SDS011;35245;52.026;8.540;2023-01-04T04:46:06;2.38;;;1.08;;
49366;SDS011;35245;52.026;8.540;2023-01-04T04:48:33;5.20;;;1.02;;
49366;SDS011;35245;52.026;8.540;2023-01-04T04:51:00;3.83;;;1.30;;
49366;SDS011;35245;52.026;8.540;2023-01-04T04:53:27;3.83;;;1.10;;
49366;SDS011;35245;52.026;8.540;2023-01-04T04:55:54;4.60;;;1.17;;
49366;SDS011;35245;52.026;8.540;2023-01-04T04:58:22;2.97;;;1.10;;
49366;SDS011;35245;52.026;8.540;2023-01-04T05:00:50;1.70;;;0.70;;
49366;SDS011;35245;52.026;8.540;2023-01-04T05:03:17;5.18;;;1.00;;
49366;SDS011;35245;52.026;8.540;2023-01-04T05:05:44;2.92;;;0.90;;
49366;SDS011;35245;52.026;8.540;2023-01-04T05:08:12;3.53;;;1.10;;
49366;SDS011;35245;52.026;8.540;2023-01-04T05:10:39;4.53;;;0.98;;
49366;SDS011;35245;52.026;8.540;2023-01-04T05:13:06;1.30;;;0.70;;
49366;SDS011;35245;52.026;8.540;2023-01-04T05:15:37;2.85;;;0.90;;
49366;SDS011;35245;52.026;8.540;2023-01-04T05:18:08;3.00;;;0.93;;
49366;SDS011;35245;52.026;8.540;2023-01-04T05:20:38;3.33;;;1.00;;
49366;SDS011;35245;52.026;8.540;2023-01-04T05:23:06;1.38;;;0.70;;
49366;SDS011;35245;52.026;8.540;2023-01-04T05:25:35;2.67;;;1.23;;
49366;SDS011;35245;52.026;8.540;2023-01-04T05:28:02;1.95;;;1.17;;
49366;SDS011;35245;52.026;8.540;2023-01-04T05:30:30;2.60;;;1.13;;
49366;SDS011;35245;52.026;8.540;2023-01-04T05:33:16;3.38;;;1.10;;
49366;SDS011;35245;52.026;8.540;2023-01-04T05:35:45;1.45;;;0.80;;
49366;SDS011;35245;52.026;8.540;2023-01-04T05:38:12;2.50;;;1.10;;
49366;SDS011;35245;52.026;8.540;2023-01-04T05:40:40;4.10;;;1.10;;
49366;SDS011;35245;52.026;8.540;2023-01-04T05:43:07;2.88;;;0.80;;
49366;SDS011;35245;52.026;8.540;2023-01-04T05:45:34;1.60;;;0.80;;
49366;SDS011;35245;52.026;8.540;2023-01-04T05:48:02;2.55;;;1.00;;
49366;SDS011;35245;52.026;8.540;2023-01-04T05:50:31;1.48;;;0.82;;
49366;SDS011;35245;52.026;8.540;2023-01-04T05:52:58;1.48;;;0.88;;
49366;SDS011;35245;52.026;8.540;2023-01-04T05:55:25;1.35;;;0.90;;
49366;SDS011;35245;52.026;8.540;2023-01-04T05:57:53;2.50;;;1.40;;
49366;SDS011;35245;52.026;8.540;2023-01-04T06:00:20;1.65;;;0.68;;
49366;SDS011;35245;52.026;8.540;2023-01-04T06:02:47;2.80;;;1.30;;
49366;SDS011;35245;52.026;8.540;2023-01-04T06:05:16;2.92;;;1.10;;
49366;SDS011;35245;52.026;8.540;2023-01-04T06:07:45;2.00;;;0.90;;
49366;SDS011;35245;52.026;8.540;2023-01-04T06:10:13;3.22;;;1.33;;
49366;SDS011;35245;52.026;8.540;2023-01-04T06:12:40;1.77;;;0.95;;
49366;SDS011;35245;52.026;8.540;2023-01-04T06:15:08;1.67;;;1.08;;
49366;SDS011;35245;52.026;8.540;2023-01-04T06:17:37;3.65;;;1.48;;
49366;SDS011;35245;52.026;8.540;2023-01-04T06:20:05;2.58;;;1.38;;
49366;SDS011;35245;52.026;8.540;2023-01-04T06:22:34;1.55;;;1.10;;
49366;SDS011;35245;52.026;8.540;2023-01-04T06:25:04;3.72;;;1.60;;
49366;SDS011;35245;52.026;8.540;2023-01-04T06:27:31;2.72;;;1.30;;
49366;SDS011;35245;52.026;8.540;2023-01-04T06:29:59;4.85;;;1.58;;
49366;SDS011;35245;52.026;8.540;2023-01-04T06:32:26;2.30;;;1.13;;
49366;SDS011;35245;52.026;8.540;2023-01-04T06:34:53;1.67;;;1.23;;
49366;SDS011;35245;52.026;8.540;2023-01-04T06:37:20;4.18;;;1.60;;
49366;SDS011;35245;52.026;8.540;2023-01-04T06:39:48;2.22;;;1.40;;
49366;SDS011;35245;52.026;8.540;2023-01-04T06:42:16;2.10;;;1.52;;
49366;SDS011;35245;52.026;8.540;2023-01-04T06:45:01;1.88;;;1.35;;
49366;SDS011;35245;52.026;8.540;2023-01-04T06:47:28;3.78;;;1.60;;
49366;SDS011;35245;52.026;8.540;2023-01-04T06:49:56;3.75;;;2.03;;
49366;SDS011;35245;52.026;8.540;2023-01-04T06:52:23;3.38;;;1.90;;
49366;SDS011;35245;52.026;8.540;2023-01-04T06:54:50;3.42;;;1.83;;
49366;SDS011;35245;52.026;8.540;2023-01-04T06:57:18;2.38;;;1.58;;
49366;SDS011;35245;52.026;8.540;2023-01-04T06:59:46;1.63;;;1.40;;
49366;SDS011;35245;52.026;8.540;2023-01-04T07:02:13;3.60;;;1.63;;
49366;SDS011;35245;52.026;8.540;2023-01-04T07:04:41;2.78;;;1.80;;
49366;SDS011;35245;52.026;8.540;2023-01-04T07:07:08;3.75;;;1.75;;
49366;SDS011;35245;52.026;8.540;2023-01-04T07:09:36;4.90;;;2.30;;
49366;SDS011;35245;52.026;8.540;2023-01-04T07:12:04;5.43;;;2.17;;
49366;SDS011;35245;52.026;8.540;2023-01-04T07:14:33;3.25;;;1.77;;
49366;SDS011;35245;52.026;8.540;2023-01-04T07:17:00;4.35;;;2.10;;
49366;SDS011;35245;52.026;8.540;2023-01-04T07:19:27;3.08;;;1.75;;
49366;SDS011;35245;52.026;8.540;2023-01-04T07:21:54;3.17;;;1.85;;
49366;SDS011;35245;52.026;8.540;2023-01-04T07:24:22;3.60;;;2.15;;
49366;SDS011;35245;52.026;8.540;2023-01-04T07:26:50;3.20;;;1.60;;
49366;SDS011;35245;52.026;8.540;2023-01-04T07:29:18;2.58;;;1.67;;
49366;SDS011;35245;52.026;8.540;2023-01-04T07:31:48;2.78;;;1.80;;
49366;SDS011;35245;52.026;8.540;2023-01-04T07:34:17;1.90;;;1.70;;
49366;SDS011;35245;52.026;8.540;2023-01-04T07:36:47;3.30;;;2.08;;
49366;SDS011;35245;52.026;8.540;2023-01-04T07:39:14;2.10;;;1.58;;
49366;SDS011;35245;52.026;8.540;2023-01-04T07:41:43;2.30;;;1.90;;
49366;SDS011;35245;52.026;8.540;2023-01-04T07:44:11;4.03;;;2.10;;
49366;SDS011;35245;52.026;8.540;2023-01-04T07:46:39;2.00;;;1.80;;
49366;SDS011;35245;52.026;8.540;2023-01-04T07:49:10;3.42;;;2.05;;
49366;SDS011;35245;52.026;8.540;2023-01-04T07:51:38;6.55;;;2.15;;
49366;SDS011;35245;52.026;8.540;2023-01-04T07:54:06;4.30;;;1.77;;
49366;SDS011;35245;52.026;8.540;2023-01-04T07:56:34;4.45;;;2.13;;
49366;SDS011;35245;52.026;8.540;2023-01-04T07:59:02;2.85;;;1.95;;
49366;SDS011;35245;52.026;8.540;2023-01-04T08:01:32;2.90;;;2.05;;
49366;SDS011;35245;52.026;8.540;2023-01-04T08:04:02;2.45;;;2.08;;
49366;SDS011;35245;52.026;8.540;2023-01-04T08:06:31;4.85;;;2.20;;
49366;SDS011;35245;52.026;8.540;2023-01-04T08:08:58;7.95;;;3.75;;
49366;SDS011;35245;52.026;8.540;2023-01-04T08:11:26;9.32;;;4.13;;
49366;SDS011;35245;52.026;8.540;2023-01-04T08:13:54;11.43;;;4.07;;
49366;SDS011;35245;52.026;8.540;2023-01-04T08:16:22;15.93;;;5.78;;
49366;SDS011;35245;52.026;8.540;2023-01-04T08:18:52;6.57;;;4.47;;
49366;SDS011;35245;52.026;8.540;2023-01-04T08:21:21;7.07;;;4.50;;
49366;SDS011;35245;52.026;8.540;2023-01-04T08:23:50;7.90;;;4.55;;
49366;SDS011;35245;52.026;8.540;2023-01-04T08:26:19;10.07;;;4.32;;
49366;SDS011;35245;52.026;8.540;2023-01-04T08:28:47;6.88;;;4.38;;
49366;SDS011;35245;52.026;8.540;2023-01-04T08:31:19;5.15;;;4.20;;
49366;SDS011;35245;52.026;8.540;2023-01-04T08:33:48;5.13;;;4.00;;
49366;SDS011;35245;52.026;8.540;2023-01-04T08:36:17;7.07;;;4.50;;
49366;SDS011;35245;52.026;8.540;2023-01-04T08:38:46;5.35;;;4.45;;
49366;SDS011;35245;52.026;8.540;2023-01-04T08:41:16;6.80;;;4.90;;
49366;SDS011;35245;52.026;8.540;2023-01-04T08:43:43;5.95;;;4.57;;
49366;SDS011;35245;52.026;8.540;2023-01-04T08:46:12;6.60;;;4.50;;
49366;SDS011;35245;52.026;8.540;2023-01-04T08:48:39;4.65;;;4.10;;
49366;SDS011;35245;52.026;8.540;2023-01-04T08:51:08;5.72;;;4.80;;
49366;SDS011;35245;52.026;8.540;2023-01-04T08:53:37;5.97;;;4.20;;
49366;SDS011;35245;52.026;8.540;2023-01-04T08:56:05;4.90;;;3.47;;
49366;SDS011;35245;52.026;8.540;2023-01-04T08:58:35;3.58;;;3.20;;
49366;SDS011;35245;52.026;8.540;2023-01-04T09:01:03;4.55;;;4.00;;
49366;SDS011;35245;52.026;8.540;2023-01-04T09:03:33;7.65;;;4.15;;
49366;SDS011;35245;52.026;8.540;2023-01-04T09:06:01;4.28;;;3.35;;
49366;SDS011;35245;52.026;8.540;2023-01-04T09:08:30;5.20;;;3.45;;
49366;SDS011;35245;52.026;8.540;2023-01-04T09:10:58;3.97;;;2.97;;
49366;SDS011;35245;52.026;8.540;2023-01-04T09:13:30;4.20;;;3.22;;
49366;SDS011;35245;52.026;8.540;2023-01-04T09:16:00;3.92;;;3.00;;
49366;SDS011;35245;52.026;8.540;2023-01-04T09:18:28;4.47;;;3.28;;
49366;SDS011;35245;52.026;8.540;2023-01-04T09:20:56;5.53;;;3.28;;
49366;SDS011;35245;52.026;8.540;2023-01-04T09:23:25;5.97;;;3.00;;
49366;SDS011;35245;52.026;8.540;2023-01-04T09:25:54;3.22;;;2.40;;
49366;SDS011;35245;52.026;8.540;2023-01-04T09:28:21;4.57;;;2.78;;
49366;SDS011;35245;52.026;8.540;2023-01-04T09:30:48;3.53;;;2.90;;
49366;SDS011;35245;52.026;8.540;2023-01-04T09:33:17;5.72;;;2.58;;
49366;SDS011;35245;52.026;8.540;2023-01-04T09:35:44;3.60;;;2.20;;
49366;SDS011;35245;52.026;8.540;2023-01-04T09:38:11;2.63;;;2.30;;
49366;SDS011;35245;52.026;8.540;2023-01-04T09:40:41;4.35;;;2.05;;
49366;SDS011;35245;52.026;8.540;2023-01-04T09:43:19;3.45;;;2.10;;
49366;SDS011;35245;52.026;8.540;2023-01-04T09:45:52;3.78;;;2.13;;
49366;SDS011;35245;52.026;8.540;2023-01-04T09:48:34;2.38;;;2.10;;
49366;SDS011;35245;52.026;8.540;2023-01-04T09:51:06;2.83;;;1.83;;
49366;SDS011;35245;52.026;8.540;2023-01-04T09:53:42;1.92;;;1.80;;
49366;SDS011;35245;52.026;8.540;2023-01-04T09:56:17;2.88;;;1.90;;
49366;SDS011;35245;52.026;8.540;2023-01-04T09:58:51;2.65;;;1.95;;
49366;SDS011;35245;52.026;8.540;2023-01-04T10:01:20;2.78;;;2.40;;
49366;SDS011;35245;52.026;8.540;2023-01-04T10:03:54;8.48;;;2.72;;
49366;SDS011;35245;52.026;8.540;2023-01-04T10:06:30;4.15;;;2.70;;
49366;SDS011;35245;52.026;8.540;2023-01-04T10:09:00;4.50;;;2.90;;
49366;SDS011;35245;52.026;8.540;2023-01-04T10:11:36;4.25;;;3.35;;
49366;SDS011;35245;52.026;8.540;2023-01-04T10:14:24;3.40;;;2.92;;
49366;SDS011;35245;52.026;8.540;2023-01-04T10:17:09;6.20;;;3.22;;
49366;SDS011;35245;52.026;8.540;2023-01-04T10:19:53;6.88;;;3.25;;
49366;SDS011;35245;52.026;8.540;2023-01-04T10:23:04;5.20;;;2.97;;
49366;SDS011;35245;52.026;8.540;2023-01-04T10:25:41;5.30;;;3.50;;
49366;SDS011;35245;52.026;8.540;2023-01-04T10:28:29;4.93;;;4.00;;
49366;SDS011;35245;52.026;8.540;2023-01-04T10:31:12;4.38;;;3.30;;
49366;SDS011;35245;52.026;8.540;2023-01-04T10:33:46;6.03;;;4.20;;
49366;SDS011;35245;52.026;8.540;2023-01-04T10:36:20;4.50;;;4.10;;
49366;SDS011;35245;52.026;8.540;2023-01-04T10:38:52;5.70;;;4.18;;
49366;SDS011;35245;52.026;8.540;2023-01-04T10:41:24;5.53;;;4.28;;
49366;SDS011;35245;52.026;8.540;2023-01-04T10:43:58;6.03;;;4.07;;
49366;SDS011;35245;52.026;8.540;2023-01-04T10:46:34;3.60;;;3.20;;
49366;SDS011;35245;52.026;8.540;2023-01-04T10:49:11;5.70;;;3.63;;
49366;SDS011;35245;52.026;8.540;2023-01-04T10:51:51;4.80;;;3.33;;
49366;SDS011;35245;52.026;8.540;2023-01-04T10:54:25;4.93;;;3.80;;
49366;SDS011;35245;52.026;8.540;2023-01-04T10:56:59;9.30;;;5.68;;
49366;SDS011;35245;52.026;8.540;2023-01-04T10:59:36;7.15;;;4.75;;
49366;SDS011;35245;52.026;8.540;2023-01-04T11:02:10;6.47;;;4.60;;
49366;SDS011;35245;52.026;8.540;2023-01-04T11:04:46;8.00;;;5.55;;
49366;SDS011;35245;52.026;8.540;2023-01-04T11:07:24;5.63;;;3.80;;
49366;SDS011;35245;52.026;8.540;2023-01-04T11:09:58;7.03;;;4.45;;
49366;SDS011;35245;52.026;8.540;2023-01-04T11:12:31;6.55;;;5.05;;
49366;SDS011;35245;52.026;8.540;2023-01-04T11:14:59;5.50;;;4.80;;
49366;SDS011;35245;52.026;8.540;2023-01-04T11:17:26;7.65;;;3.80;;
49366;SDS011;35245;52.026;8.540;2023-01-04T11:19:55;6.55;;;3.75;;
49366;SDS011;35245;52.026;8.540;2023-01-04T11:22:24;4.18;;;3.80;;
49366;SDS011;35245;52.026;8.540;2023-01-04T11:25:00;4.45;;;3.58;;
49366;SDS011;35245;52.026;8.540;2023-01-04T11:27:30;5.07;;;4.10;;
49366;SDS011;35245;52.026;8.540;2023-01-04T11:30:04;5.38;;;4.00;;
49366;SDS011;35245;52.026;8.540;2023-01-04T11:32:45;7.68;;;4.50;;
49366;SDS011;35245;52.026;8.540;2023-01-04T11:35:35;4.63;;;3.55;;
49366;SDS011;35245;52.026;8.540;2023-01-04T11:38:14;6.18;;;3.80;;
49366;SDS011;35245;52.026;8.540;2023-01-04T11:40:56;5.40;;;3.38;;
49366;SDS011;35245;52.026;8.540;2023-01-04T11:43:27;3.55;;;3.25;;
49366;SDS011;35245;52.026;8.540;2023-01-04T11:45:57;3.95;;;3.00;;
49366;SDS011;35245;52.026;8.540;2023-01-04T11:51:03;4.78;;;3.63;;
49366;SDS011;35245;52.026;8.540;2023-01-04T11:53:41;4.13;;;3.60;;
49366;SDS011;35245;52.026;8.540;2023-01-04T11:56:13;4.35;;;3.15;;
49366;SDS011;35245;52.026;8.540;2023-01-04T11:58:44;5.03;;;4.03;;
49366;SDS011;35245;52.026;8.540;2023-01-04T12:01:37;4.97;;;4.15;;
49366;SDS011;35245;52.026;8.540;2023-01-04T12:04:10;6.72;;;4.88;;
49366;SDS011;35245;52.026;8.540;2023-01-04T12:06:42;8.10;;;4.82;;
49366;SDS011;35245;52.026;8.540;2023-01-04T12:09:17;7.75;;;4.55;;
49366;SDS011;35245;52.026;8.540;2023-01-04T12:11:47;5.50;;;4.15;;
49366;SDS011;35245;52.026;8.540;2023-01-04T12:14:17;5.88;;;4.65;;
49366;SDS011;35245;52.026;8.540;2023-01-04T12:16:53;6.55;;;4.60;;
49366;SDS011;35245;52.026;8.540;2023-01-04T12:19:28;6.53;;;4.72;;
49366;SDS011;35245;52.026;8.540;2023-01-04T12:21:57;6.57;;;4.45;;
49366;SDS011;35245;52.026;8.540;2023-01-04T12:24:29;5.38;;;4.78;;
49366;SDS011;35245;52.026;8.540;2023-01-04T12:26:58;4.60;;;4.13;;
49366;SDS011;35245;52.026;8.540;2023-01-04T12:29:40;7.13;;;5.10;;
49366;SDS011;35245;52.026;8.540;2023-01-04T12:47:42;5.75;;;3.58;;
49366;SDS011;35245;52.026;8.540;2023-01-04T12:50:29;3.65;;;3.28;;
49366;SDS011;35245;52.026;8.540;2023-01-04T12:52:57;5.90;;;3.80;;
49366;SDS011;35245;52.026;8.540;2023-01-04T12:59:04;6.05;;;3.40;;
49366;SDS011;35245;52.026;8.540;2023-01-04T13:01:37;5.13;;;3.47;;
49366;SDS011;35245;52.026;8.540;2023-01-04T13:04:26;4.88;;;3.28;;
49366;SDS011;35245;52.026;8.540;2023-01-04T13:07:06;6.25;;;3.65;;
49366;SDS011;35245;52.026;8.540;2023-01-04T13:09:40;4.57;;;3.25;;
49366;SDS011;35245;52.026;8.540;2023-01-04T13:15:27;7.35;;;3.78;;
49366;SDS011;35245;52.026;8.540;2023-01-04T13:18:17;5.28;;;3.22;;
49366;SDS011;35245;52.026;8.540;2023-01-04T13:21:02;8.00;;;4.00;;
49366;SDS011;35245;52.026;8.540;2023-01-04T13:23:37;4.30;;;3.53;;
49366;SDS011;35245;52.026;8.540;2023-01-04T13:29:09;6.28;;;4.10;;
49366;SDS011;35245;52.026;8.540;2023-01-04T13:31:44;4.90;;;3.47;;
49366;SDS011;35245;52.026;8.540;2023-01-04T13:34:31;3.90;;;3.47;;
49366;SDS011;35245;52.026;8.540;2023-01-04T13:37:04;5.18;;;4.55;;
49366;SDS011;35245;52.026;8.540;2023-01-04T13:39:39;6.55;;;3.67;;
49366;SDS011;35245;52.026;8.540;2023-01-04T13:42:11;4.55;;;3.60;;
49366;SDS011;35245;52.026;8.540;2023-01-04T13:47:49;6.15;;;3.80;;
49366;SDS011;35245;52.026;8.540;2023-01-04T13:50:25;9.82;;;4.80;;
49366;SDS011;35245;52.026;8.540;2023-01-04T13:52:57;5.80;;;4.13;;
49366;SDS011;35245;52.026;8.540;2023-01-04T13:55:25;4.85;;;3.75;;
49366;SDS011;35245;52.026;8.540;2023-01-04T13:57:55;5.78;;;4.40;;
49366;SDS011;35245;52.026;8.540;2023-01-04T14:00:23;6.15;;;4.80;;
49366;SDS011;35245;52.026;8.540;2023-01-04T14:03:10;5.53;;;4.10;;
49366;SDS011;35245;52.026;8.540;2023-01-04T14:05:52;8.35;;;5.32;;
49366;SDS011;35245;52.026;8.540;2023-01-04T14:08:26;5.35;;;4.70;;
49366;SDS011;35245;52.026;8.540;2023-01-04T14:10:59;5.10;;;4.60;;
49366;SDS011;35245;52.026;8.540;2023-01-04T14:13:27;6.18;;;4.78;;
49366;SDS011;35245;52.026;8.540;2023-01-04T14:16:04;7.03;;;4.88;;
49366;SDS011;35245;52.026;8.540;2023-01-04T14:18:39;7.47;;;5.55;;
49366;SDS011;35245;52.026;8.540;2023-01-04T14:21:13;5.78;;;5.03;;
49366;SDS011;35245;52.026;8.540;2023-01-04T14:23:42;6.50;;;5.30;;
49366;SDS011;35245;52.026;8.540;2023-01-04T14:28:55;6.10;;;5.47;;
49366;SDS011;35245;52.026;8.540;2023-01-04T14:34:12;5.93;;;5.35;;
49366;SDS011;35245;52.026;8.540;2023-01-04T14:36:39;6.88;;;5.80;;
49366;SDS011;35245;52.026;8.540;2023-01-04T14:39:09;6.45;;;5.00;;
49366;SDS011;35245;52.026;8.540;2023-01-04T14:41:53;7.63;;;5.30;;
49366;SDS011;35245;52.026;8.540;2023-01-04T14:44:24;8.82;;;4.55;;
49366;SDS011;35245;52.026;8.540;2023-01-04T14:46:55;6.78;;;4.15;;
49366;SDS011;35245;52.026;8.540;2023-01-04T14:49:26;7.95;;;4.57;;
49366;SDS011;35245;52.026;8.540;2023-01-04T14:51:56;9.43;;;3.90;;
49366;SDS011;35245;52.026;8.540;2023-01-04T14:54:25;4.97;;;3.60;;
49366;SDS011;35245;52.026;8.540;2023-01-04T14:56:55;5.45;;;3.92;;
49366;SDS011;35245;52.026;8.540;2023-01-04T14:59:23;7.20;;;3.50;;
49366;SDS011;35245;52.026;8.540;2023-01-04T15:01:52;5.95;;;3.13;;
49366;SDS011;35245;52.026;8.540;2023-01-04T15:04:22;6.82;;;3.90;;
49366;SDS011;35245;52.026;8.540;2023-01-04T15:06:51;4.90;;;3.45;;
49366;SDS011;35245;52.026;8.540;2023-01-04T15:09:20;3.97;;;3.10;;
49366;SDS011;35245;52.026;8.540;2023-01-04T15:11:48;4.60;;;3.13;;
49366;SDS011;35245;52.026;8.540;2023-01-04T15:14:16;5.65;;;3.03;;
49366;SDS011;35245;52.026;8.540;2023-01-04T15:16:43;5.95;;;3.63;;
49366;SDS011;35245;52.026;8.540;2023-01-04T15:19:11;6.20;;;2.45;;
49366;SDS011;35245;52.026;8.540;2023-01-04T15:21:38;5.63;;;2.85;;
49366;SDS011;35245;52.026;8.540;2023-01-04T15:24:07;5.97;;;2.42;;
49366;SDS011;35245;52.026;8.540;2023-01-04T15:26:35;7.28;;;2.83;;
49366;SDS011;35245;52.026;8.540;2023-01-04T15:29:03;8.48;;;2.58;;
49366;SDS011;35245;52.026;8.540;2023-01-04T15:31:30;4.68;;;2.42;;
49366;SDS011;35245;52.026;8.540;2023-01-04T15:33:57;5.13;;;2.55;;
49366;SDS011;35245;52.026;8.540;2023-01-04T15:36:25;4.45;;;2.28;;
49366;SDS011;35245;52.026;8.540;2023-01-04T15:38:52;5.40;;;2.17;;
49366;SDS011;35245;52.026;8.540;2023-01-04T15:41:21;4.32;;;2.45;;
49366;SDS011;35245;52.026;8.540;2023-01-04T15:44:07;4.30;;;2.40;;
49366;SDS011;35245;52.026;8.540;2023-01-04T15:46:35;4.43;;;2.17;;
49366;SDS011;35245;52.026;8.540;2023-01-04T15:49:02;4.65;;;2.20;;
49366;SDS011;35245;52.026;8.540;2023-01-04T15:51:30;6.55;;;2.85;;
49366;SDS011;35245;52.026;8.540;2023-01-04T15:53:57;5.18;;;2.08;;
49366;SDS011;35245;52.026;8.540;2023-01-04T15:56:26;5.35;;;2.47;;
49366;SDS011;35245;52.026;8.540;2023-01-04T15:58:54;3.65;;;2.13;;
49366;SDS011;35245;52.026;8.540;2023-01-04T16:01:21;4.38;;;1.92;;
49366;SDS011;35245;52.026;8.540;2023-01-04T16:03:49;3.05;;;2.20;;
49366;SDS011;35245;52.026;8.540;2023-01-04T16:06:16;5.10;;;2.33;;
49366;SDS011;35245;52.026;8.540;2023-01-04T16:08:44;3.78;;;2.83;;